Latest Weather Observations for Groote Eylandt Airport

IDD60801

Issued at 5:31 pm CST Wednesday 26 June 2019 (issued every 10 minutes, with the page automatically refreshed every 10 minutes)

About weather observations | Map of weather stations | Latest weather observations for NT | Other Formats
Station Details ID: 014518 Name: GROOTE EYLANDT AIRPORT Lat: -13.97 Lon: 136.46 Height: 13.7 m
Data from the previous 72 hours. | See also: Recent months at Groote Eylandt Airport
Date/Time
CST
Temp
°C
App
Temp
°C
Dew
Point
°C
Rel
Hum
%
Delta-T
°C
Wind Press
QNH
hPa
Press
MSL
hPa
Rain since
9am
mm
Dir  Spd
km/h
Gust
km/h
Spd
kts
Gust
kts
26/05:30pm 23.8 24.0 16.8 65 4.3 SE 11 20 6 11 1014.8 1014.7 0.0
26/05:00pm 24.8 24.6 16.8 61 4.9 SE 13 19 7 10 1014.5 1014.4 0.0
26/04:30pm 25.9 24.7 15.0 51 6.6 ESE 15 20 8 11 1014.2 1014.1 0.0
26/04:00pm 25.7 24.1 15.1 52 6.4 ESE 17 22 9 12 1014.2 1014.1 0.0
26/03:30pm 26.6 25.1 15.3 50 6.9 ESE 17 39 9 21 1014.2 1014.1 0.0
26/03:00pm 26.5 24.7 15.5 50 6.7 ESE 19 30 10 16 1014.3 1014.2 0.0
26/02:30pm 26.8 25.2 14.9 48 7.2 ESE 17 26 9 14 1014.5 1014.4 0.0
26/02:00pm 27.1 23.2 13.4 42 8.1 E 26 35 14 19 1014.7 1014.6 0.0
26/01:30pm 27.1 24.1 13.8 44 7.9 E 22 30 12 16 1015.1 1015.0 0.0
26/01:00pm 27.5 24.9 13.8 43 8.1 ESE 20 30 11 16 1015.5 1015.4 0.0
26/12:30pm 26.9 24.0 12.9 42 8.2 ESE 20 32 11 17 1015.9 1015.8 0.0
26/12:00pm 26.5 25.2 14.9 49 7.0 SE 15 24 8 13 1016.4 1016.4 0.0
26/11:30am 26.4 24.3 13.5 45 7.6 ESE 17 26 9 14 1016.9 1016.9 0.0
26/11:00am 26.4 24.7 14.8 49 7.0 ESE 17 28 9 15 1017.1 1017.1 0.0
26/10:30am 24.9 23.0 14.1 51 6.4 SSE 17 30 9 16 1017.3 1017.3 0.0
26/10:00am 24.5 22.6 14.3 53 6.0 SSE 17 24 9 13 1017.5 1017.5 0.0
26/09:30am 24.1 23.3 15.1 57 5.4 SE 13 20 7 11 1017.7 1017.7 0.0
26/09:00am 22.6 22.7 15.4 64 4.3 SSE 9 19 5 10 1017.8 1017.8 0.0
26/08:30am 20.5 21.2 15.7 74 2.9 SE 6 11 3 6 1017.7 1017.7 0.0
26/08:00am 15.5 16.7 13.7 89 1.0 CALM 0 6 0 3 1017.3 1017.3 0.0
26/07:30am 12.4 12.9 11.5 94 0.5 CALM 0 0 0 0 1017.3 1017.3 0.0
26/07:00am 11.0 10.7 10.1 94 0.5 E 2 6 1 3 1017.3 1017.3 0.0
26/06:30am 11.0 11.1 10.1 94 0.5 CALM 0 0 0 0 1017.0 1017.0 0.0
26/06:00am 10.9 11.0 10.1 95 0.4 CALM 0 0 0 0 1016.8 1016.8 0.0
26/05:30am 10.8 10.1 10.0 95 0.4 E 4 6 2 3 1016.6 1016.6 0.0
26/05:00am 10.6 9.5 9.8 95 0.4 E 6 7 3 4 1016.6 1016.6 0.0
26/04:30am 10.6 9.5 9.8 95 0.4 SSE 6 7 3 4 1016.4 1016.4 0.0
26/04:00am 11.1 11.2 10.3 95 0.4 CALM 0 0 0 0 1016.5 1016.5 0.0
26/03:30am 11.5 11.7 10.7 95 0.4 CALM 0 0 0 0 1016.5 1016.5 0.0
26/03:00am 12.0 12.4 11.1 94 0.5 CALM 0 0 0 0 1016.5 1016.5 0.0
26/02:30am 12.6 12.0 11.7 94 0.5 E 6 7 3 4 1016.6 1016.6 0.0
26/02:00am 12.8 13.0 11.9 94 0.5 E 2 6 1 3 1016.6 1016.6 0.0
26/01:30am 13.1 12.4 12.0 93 0.6 ESE 7 9 4 5 1016.8 1016.8 0.0
26/01:00am 13.7 13.0 12.1 90 0.9 ENE 7 7 4 4 1017.1 1017.1 0.0
26/12:30am 14.2 13.8 12.9 92 0.7 E 7 9 4 5 1017.0 1017.0 0.0
26/12:00am 13.7 13.3 13.1 96 0.3 SE 7 11 4 6 1017.3 1017.3 0.0
 
Date/Time
CST
Temp
°C
App
Temp
°C
Dew
Point
°C
Rel
Hum
%
Delta-T
°C
Wind Press
QNH
hPa
Press
MSL
hPa
Rain since
9am
mm
Dir  Spd
km/h
Gust
km/h
Spd
kts
Gust
kts
25/11:30pm 13.2 12.8 12.3 94 0.5 SE 6 9 3 5 1017.5 1017.5 0.0
25/11:00pm 13.1 12.5 12.2 94 0.5 ESE 7 9 4 5 1017.8 1017.8 0.0
25/10:30pm 12.9 12.3 11.8 93 0.6 SE 6 9 3 5 1017.9 1017.9 0.0
25/10:00pm 13.2 12.7 11.9 92 0.7 ESE 6 7 3 4 1017.9 1017.9 0.0
25/09:30pm 13.9 14.3 12.5 91 0.8 E 2 7 1 4 1018.2 1018.2 0.0
25/09:00pm 14.5 15.4 12.9 90 0.9 CALM 0 0 0 0 1018.3 1018.3 0.0
25/08:30pm 15.0 14.8 13.0 88 1.1 SSW 6 7 3 4 1018.1 1018.1 0.0
25/08:00pm 15.8 16.8 13.1 84 1.5 CALM 0 0 0 0 1018.0 1018.0 0.0
25/07:30pm 17.1 17.0 13.2 78 2.2 SE 6 7 3 4 1017.7 1017.7 0.0
25/07:00pm 18.5 18.4 13.4 72 2.9 SSE 6 7 3 4 1017.4 1017.4 0.0
25/06:30pm 19.9 19.7 13.1 65 3.9 SSE 6 7 3 4 1017.2 1017.2 0.0
25/06:00pm 21.3 20.5 13.0 59 4.7 SSE 9 13 5 7 1017.0 1017.0 0.0
25/05:30pm 22.5 21.3 12.7 54 5.6 SSE 11 19 6 10 1016.7 1016.7 0.0
25/05:00pm 23.7 22.6 13.0 51 6.2 SSE 11 24 6 13 1016.4 1016.4 0.0
25/04:30pm 24.3 22.7 12.9 49 6.6 SSE 13 20 7 11 1016.1 1016.0 0.0
25/04:00pm 25.0 23.8 12.9 47 7.0 SE 11 20 6 11 1016.1 1016.0 0.0
25/03:30pm 25.2 23.5 12.4 45 7.4 SE 13 28 7 15 1016.0 1015.9 0.0
25/03:00pm 25.3 23.7 12.9 46 7.2 SE 13 20 7 11 1016.0 1015.9 0.0
25/02:30pm 25.5 24.1 13.4 47 7.1 SE 13 24 7 13 1016.3 1016.2 0.0
25/02:00pm 25.6 24.5 13.1 46 7.3 SSE 11 26 6 14 1016.5 1016.5 0.0
25/01:30pm 25.1 23.1 12.7 46 7.2 SE 15 26 8 14 1016.7 1016.7 0.0
25/01:00pm 25.7 23.5 13.2 46 7.3 SE 17 26 9 14 1017.1 1017.1 0.0
25/12:30pm 25.5 24.0 13.0 46 7.3 S 13 24 7 13 1017.5 1017.5 0.0
25/12:00pm 25.4 23.4 12.6 45 7.4 SE 15 24 8 13 1017.8 1017.8 0.0
25/11:30am 25.0 23.2 12.2 44 7.3 SE 13 22 7 12 1018.0 1018.0 0.0
25/11:00am 24.6 22.3 11.9 45 7.2 SE 15 26 8 14 1018.4 1018.4 0.0
25/10:30am 23.8 20.7 11.5 46 6.9 SE 19 28 10 15 1018.7 1018.7 0.0
25/10:00am 23.8 21.5 11.8 47 6.8 SE 15 30 8 16 1018.9 1018.9 0.0
25/09:30am 23.0 21.3 12.6 52 5.9 SE 13 20 7 11 1018.9 1018.9 0.0
25/09:00am 22.3 21.4 12.5 53 5.6 SE 9 17 5 9 1018.7 1018.7 0.0
25/08:30am 20.4 20.0 13.1 63 4.1 SE 7 15 4 8 1018.5 1018.5 0.0
25/08:00am 15.5 16.2 12.3 81 1.7 CALM 0 0 0 0 1018.3 1018.3 0.0
25/07:30am 12.4 12.8 11.1 92 0.7 CALM 0 4 0 2 1018.2 1018.2 0.0
25/07:00am 10.9 10.2 10.1 95 0.4 E 4 7 2 4 1018.0 1018.0 0.0
25/06:30am 10.7 9.6 9.8 94 0.5 SE 6 9 3 5 1017.8 1017.8 0.0
25/06:00am 11.2 10.2 10.3 94 0.5 E 6 7 3 4 1017.5 1017.5 0.0
25/05:30am 11.2 11.3 10.1 93 0.6 CALM 0 0 0 0 1017.3 1017.3 0.0
25/05:00am 11.7 11.9 10.4 92 0.7 CALM 0 0 0 0 1017.3 1017.3 0.0
25/04:30am 12.1 12.4 10.8 92 0.7 CALM 0 2 0 1 1016.9 1016.9 0.0
25/04:00am 12.1 11.3 11.0 93 0.6 ESE 6 7 3 4 1016.7 1016.7 0.0
25/03:30am 12.1 11.3 11.2 94 0.5 ESE 6 7 3 4 1016.8 1016.8 0.0
25/03:00am 12.0 12.3 10.9 93 0.6 CALM 0 6 0 3 1016.8 1016.8 0.0
25/02:30am 12.5 12.2 11.4 93 0.6 E 4 6 2 3 1017.0 1017.0 0.0
25/02:00am 12.7 12.1 11.6 93 0.6 ESE 6 7 3 4 1017.2 1017.2 0.0
25/01:30am 12.5 11.9 11.6 94 0.5 ESE 6 9 3 5 1017.4 1017.4 0.0
25/01:00am 12.8 12.6 11.9 94 0.5 SE 4 7 2 4 1017.6 1017.6 0.0
25/12:30am 13.5 14.3 12.4 93 0.6 CALM 0 0 0 0 1017.9 1017.9 0.0
25/12:00am 14.2 15.2 13.1 93 0.6 CALM 0 0 0 0 1018.0 1018.0 0.0
 
Date/Time
CST
Temp
°C
App
Temp
°C
Dew
Point
°C
Rel
Hum
%
Delta-T
°C
Wind Press
QNH
hPa
Press
MSL
hPa
Rain since
9am
mm
Dir  Spd
km/h
Gust
km/h
Spd
kts
Gust
kts
24/11:30pm 14.5 14.7 13.0 91 0.8 ESE 4 6 2 3 1018.1 1018.1 0.0
24/11:00pm 15.0 14.9 13.2 89 1.0 ESE 6 9 3 5 1018.3 1018.3 0.0
24/10:30pm 16.6 16.4 14.6 88 1.1 ESE 9 11 5 6 1018.3 1018.3 0.0
24/10:00pm 15.5 15.6 13.9 90 0.9 E 6 7 3 4 1018.4 1018.4 0.0
24/09:30pm 16.1 17.4 14.1 88 1.1 CALM 0 0 0 0 1018.5 1018.5 0.0
24/09:00pm 16.3 17.6 14.0 86 1.3 CALM 0 0 0 0 1018.7 1018.7 0.0
24/08:30pm 17.0 18.3 14.1 83 1.6 CALM 0 0 0 0 1018.7 1018.7 0.0
24/08:00pm 17.8 18.0 14.3 80 2.0 SE 6 7 3 4 1018.4 1018.4 0.0
24/07:30pm 19.0 19.2 14.3 74 2.7 SE 6 7 3 4 1018.0 1018.0 0.0
24/07:00pm 19.9 20.0 14.5 71 3.1 SSE 7 11 4 6 1017.4 1017.4 0.0
24/06:30pm 20.5 20.2 14.4 68 3.5 SSE 9 13 5 7 1017.2 1017.2 0.0
24/06:00pm 21.4 21.2 14.6 65 4.0 SSE 9 17 5 9 1016.9 1016.9 0.0
24/05:30pm 22.3 21.6 14.4 61 4.6 SE 11 22 6 12 1016.4 1016.4 0.0
24/05:00pm 23.4 22.7 14.4 57 5.3 SSE 11 22 6 12 1016.3 1016.2 0.0
24/04:30pm 23.8 22.9 14.8 57 5.3 SE 13 22 7 12 1016.1 1016.0 0.0
24/04:00pm 24.4 23.4 14.5 54 5.9 SE 13 22 7 12 1016.0 1015.9 0.0
24/03:30pm 24.5 23.0 14.3 53 6.0 SSE 15 26 8 14 1015.9 1015.8 0.0
24/03:00pm 25.1 24.1 14.6 52 6.3 SE 13 20 7 11 1015.7 1015.6 0.0
24/02:30pm 25.4 24.4 14.5 51 6.5 SSE 13 24 7 13 1015.8 1015.7 0.0
24/02:00pm 25.1 23.6 14.3 51 6.4 SE 15 26 8 14 1016.2 1016.1 0.0
24/01:30pm 25.9 24.6 14.7 50 6.7 ESE 15 26 8 14 1016.5 1016.5 0.0
24/01:00pm 25.5 24.4 14.3 50 6.7 SSE 13 20 7 11 1016.8 1016.8 0.0
24/12:30pm 24.9 23.3 13.8 50 6.5 SE 15 26 8 14 1017.3 1017.3 0.0
24/12:00pm 24.9 23.0 14.1 51 6.4 SE 17 28 9 15 1017.7 1017.7 0.0
24/11:30am 24.6 22.6 13.8 51 6.3 SE 17 26 9 14 1018.1 1018.1 0.0
24/11:00am 24.2 22.5 13.7 52 6.1 SSE 15 28 8 15 1018.2 1018.2 0.0
24/10:30am 23.8 21.7 13.6 52 5.9 SE 17 30 9 16 1018.3 1018.3 0.0
24/10:00am 23.6 21.5 13.5 53 5.9 SE 17 26 9 14 1018.3 1018.3 0.0
24/09:30am 23.0 21.3 13.5 55 5.5 SSE 15 28 8 15 1018.3 1018.3 0.0
24/09:00am 22.1 20.8 12.6 55 5.4 SE 11 20 6 11 1018.1 1018.1 0.0
24/08:30am 19.4 19.4 13.6 69 3.3 SE 6 11 3 6 1017.8 1017.8 0.0
24/08:27am 18.7 18.8 14.0 74 2.7 SE 6 11 3 6 1017.7 1017.7 0.0
24/08:00am 13.7 14.2 11.6 87 1.1 CALM 0 0 0 0 1017.5 1017.5 0.0
24/07:30am 10.4 10.2 9.2 92 0.6 CALM 0 0 0 0 1017.4 1017.4 0.0
24/07:00am 8.6 8.1 8.0 96 0.3 CALM 0 2 0 1 1017.2 1017.2 0.0
24/06:30am 8.4 7.8 7.6 95 0.4 CALM 0 0 0 0 1016.8 1016.8 0.0
24/06:00am 8.6 7.7 7.7 94 0.4 E 2 6 1 3 1016.7 1016.7 0.0
24/05:30am 8.9 7.3 8.0 94 0.4 E 6 7 3 4 1016.6 1016.6 0.0
24/05:00am 9.0 7.4 8.1 94 0.4 E 6 7 3 4 1016.5 1016.5 0.0
24/04:30am 8.9 7.3 8.0 94 0.4 E 6 9 3 5 1016.3 1016.2 0.0
24/04:00am 8.9 8.5 8.1 95 0.4 CALM 0 0 0 0 1016.1 1016.0 0.0
24/03:30am 9.0 8.6 8.2 95 0.4 CALM 0 0 0 0 1016.1 1016.0 0.0
24/03:00am 9.2 8.8 8.3 94 0.4 CALM 0 0 0 0 1016.3 1016.2 0.0
24/02:30am 9.4 9.1 8.5 94 0.4 CALM 0 0 0 0 1016.4 1016.4 0.0
24/02:00am 9.7 9.5 8.9 95 0.4 CALM 0 0 0 0 1016.3 1016.2 0.0
24/01:30am 9.8 9.6 8.9 94 0.4 CALM 0 0 0 0 1016.3 1016.2 0.0
24/01:00am 10.2 10.1 9.3 94 0.4 CALM 0 0 0 0 1016.3 1016.2 0.0
24/12:30am 10.4 10.3 9.5 94 0.4 CALM 0 0 0 0 1016.2 1016.1 0.0
24/12:00am 10.7 10.6 9.6 93 0.6 CALM 0 0 0 0 1016.2 1016.1 0.0
 
Date/Time
CST
Temp
°C
App
Temp
°C
Dew
Point
°C
Rel
Hum
%
Delta-T
°C
Wind Press
QNH
hPa
Press
MSL
hPa
Rain since
9am
mm
Dir  Spd
km/h
Gust
km/h
Spd
kts
Gust
kts
23/11:30pm 11.1 11.2 10.0 93 0.6 CALM 0 0 0 0 1016.3 1016.2 0.0
23/11:00pm 11.5 10.5 10.4 93 0.6 E 6 9 3 5 1016.4 1016.4 0.0
23/10:30pm 12.0 12.2 10.7 92 0.7 CALM 0 7 0 4 1016.4 1016.4 0.0
23/10:00pm 12.5 12.9 11.1 91 0.7 CALM 0 0 0 0 1016.4 1016.4 0.0
23/09:30pm 13.3 13.8 11.7 90 0.9 CALM 0 0 0 0 1016.4 1016.4 0.0
23/09:00pm 14.2 14.9 12.1 87 1.1 CALM 0 0 0 0 1016.4 1016.4 0.0
23/08:30pm 15.5 15.5 12.4 82 1.7 ESE 4 6 2 3 1016.3 1016.2 0.0
23/08:00pm 16.7 17.5 12.5 76 2.3 CALM 0 0 0 0 1016.2 1016.1 0.0
23/07:30pm 18.1 17.8 12.8 71 3.0 ESE 6 7 3 4 1016.1 1016.0 0.0
23/07:00pm 19.0 18.5 12.7 67 3.5 SE 7 11 4 6 1015.9 1015.8 0.0
23/06:30pm 19.8 19.0 13.0 65 3.8 SSE 9 13 5 7 1015.7 1015.6 0.0
23/06:00pm 20.6 19.0 12.8 61 4.4 SSE 13 26 7 14 1015.4 1015.3 0.0

Other formats

Comma delimited format used in spreadsheet applications
http://www.bom.gov.au/fwo/IDD60801/IDD60801.94153.axf

JavaScript Object Notation format (JSON) in row-major order
http://www.bom.gov.au/fwo/IDD60801/IDD60801.94153.json

Data quality

Most of these data are generated automatically and are frequently updated. Quality checks on data are not normally performed. It is possible for incorrect values to appear. Refer to information at About Latest Weather Observations and please check the disclaimer before using these data.